createdAt,value
2022-09-13T00:01:13.508Z,9.53
2022-09-13T00:03:42.139Z,9.53
2022-09-13T00:06:14.797Z,9.17
2022-09-13T00:08:43.867Z,9.77
2022-09-13T00:11:18.028Z,10.10
2022-09-13T00:13:46.707Z,10.37
2022-09-13T00:16:16.655Z,9.83
2022-09-13T00:18:45.626Z,9.80
2022-09-13T00:21:17.507Z,9.37
2022-09-13T00:23:47.651Z,10.20
2022-09-13T00:26:19.233Z,8.90
2022-09-13T00:28:51.676Z,8.50
2022-09-13T00:31:21.184Z,9.63
2022-09-13T00:33:49.778Z,9.80
2022-09-13T00:36:19.972Z,9.47
2022-09-13T00:38:48.621Z,9.87
2022-09-13T00:41:19.841Z,9.70
2022-09-13T00:43:50.917Z,10.77
2022-09-13T00:46:25.596Z,10.43
2022-09-13T00:48:59.482Z,10.03
2022-09-13T00:51:30.909Z,11.00
2022-09-13T00:54:00.860Z,10.47
2022-09-13T00:56:33.451Z,10.83
2022-09-13T00:59:05.728Z,10.67
2022-09-13T01:01:41.587Z,10.30
2022-09-13T01:04:12.749Z,10.77
2022-09-13T01:06:43.297Z,10.80
2022-09-13T01:09:13.981Z,10.57
2022-09-13T01:11:49.245Z,10.83
2022-09-13T01:14:20.001Z,9.93
2022-09-13T01:16:48.838Z,9.80
2022-09-13T01:19:18.087Z,9.43
2022-09-13T01:22:13.816Z,9.53
2022-09-13T01:25:14.938Z,10.13
2022-09-13T01:28:08.263Z,10.20
2022-09-13T01:30:42.396Z,9.50
2022-09-13T01:33:27.440Z,9.57
2022-09-13T01:36:16.688Z,9.97
2022-09-13T01:38:57.882Z,9.87
2022-09-13T01:41:54.503Z,9.90
2022-09-13T01:44:35.799Z,9.70
2022-09-13T01:47:12.431Z,9.97
2022-09-13T01:49:47.630Z,10.27
2022-09-13T01:52:22.942Z,10.40
2022-09-13T01:54:58.791Z,9.90
2022-09-13T01:57:34.248Z,10.40
2022-09-13T02:00:07.865Z,9.97
2022-09-13T02:02:46.137Z,10.33
2022-09-13T02:05:20.421Z,10.37
2022-09-13T02:07:55.160Z,10.90
2022-09-13T02:10:27.850Z,10.60
2022-09-13T02:12:59.789Z,10.93
2022-09-13T02:15:34.446Z,11.20
2022-09-13T02:18:08.661Z,10.87
2022-09-13T02:20:40.246Z,10.93
2022-09-13T02:23:13.551Z,10.13
2022-09-13T02:25:43.635Z,10.60
2022-09-13T02:28:16.249Z,11.17
2022-09-13T02:30:51.745Z,10.60
2022-09-13T02:33:25.286Z,10.53
2022-09-13T02:35:57.751Z,10.87
2022-09-13T02:38:32.006Z,10.63
2022-09-13T02:41:06.892Z,10.77
2022-09-13T02:43:41.968Z,10.43
2022-09-13T02:46:21.999Z,10.60
2022-09-13T02:49:00.108Z,10.37
2022-09-13T02:51:35.223Z,10.70
2022-09-13T02:54:16.257Z,10.40
2022-09-13T02:56:53.093Z,10.40
2022-09-13T02:59:24.179Z,10.40
2022-09-13T03:01:59.634Z,10.27
2022-09-13T03:04:30.602Z,10.27
2022-09-13T03:06:59.200Z,11.27
2022-09-13T03:09:28.680Z,10.20
2022-09-13T03:12:15.637Z,11.00
2022-09-13T03:14:51.246Z,10.43
2022-09-13T03:17:36.692Z,11.30
2022-09-13T03:20:14.446Z,10.90
2022-09-13T03:23:09.633Z,11.13
2022-09-13T03:25:56.447Z,10.63
2022-09-13T03:28:36.526Z,11.37
2022-09-13T03:31:11.156Z,10.83
2022-09-13T03:33:47.444Z,11.17
2022-09-13T03:36:23.075Z,10.80
2022-09-13T03:39:01.869Z,11.20
2022-09-13T03:41:35.990Z,11.07
2022-09-13T03:44:07.493Z,11.10
2022-09-13T03:46:40.151Z,10.83
2022-09-13T03:49:12.014Z,10.20
2022-09-13T03:51:42.976Z,10.80
2022-09-13T03:54:20.281Z,11.40
2022-09-13T03:57:10.603Z,10.80
2022-09-13T03:59:41.268Z,10.33
2022-09-13T04:02:12.250Z,10.63
2022-09-13T04:04:41.595Z,10.70
2022-09-13T04:07:13.486Z,10.37
2022-09-13T04:09:42.034Z,10.37
2022-09-13T04:12:11.325Z,10.17
2022-09-13T04:14:39.795Z,10.60
2022-09-13T04:17:08.808Z,10.73
2022-09-13T04:19:37.541Z,10.80
2022-09-13T04:22:06.413Z,11.07
2022-09-13T04:24:37.562Z,10.47
2022-09-13T04:27:06.559Z,10.70
2022-09-13T04:29:35.120Z,11.30
2022-09-13T04:32:04.451Z,10.37
2022-09-13T04:34:32.857Z,9.63
2022-09-13T04:37:01.328Z,10.23
2022-09-13T04:39:30.097Z,10.50
2022-09-13T04:42:00.094Z,10.87
2022-09-13T04:44:29.811Z,10.43
2022-09-13T04:46:58.260Z,11.50
2022-09-13T04:49:26.860Z,10.27
2022-09-13T04:51:55.587Z,10.60
2022-09-13T04:54:24.496Z,9.83
2022-09-13T04:56:53.047Z,9.93
2022-09-13T04:59:22.998Z,10.17
2022-09-13T05:01:51.577Z,10.90
2022-09-13T05:04:20.372Z,9.80
2022-09-13T05:06:49.271Z,9.37
2022-09-13T05:09:18.038Z,9.80
2022-09-13T05:11:46.539Z,9.13
2022-09-13T05:14:15.422Z,9.60
2022-09-13T05:16:45.419Z,9.33
2022-09-13T05:19:14.457Z,9.70
2022-09-13T05:21:43.062Z,9.43
2022-09-13T05:24:12.040Z,9.50
2022-09-13T05:26:40.542Z,9.50
2022-09-13T05:29:09.112Z,10.07
2022-09-13T05:31:40.643Z,10.33
2022-09-13T05:34:12.295Z,10.43
2022-09-13T05:36:41.285Z,9.97
2022-09-13T05:42:04.132Z,9.17
2022-09-13T05:44:32.618Z,8.50
2022-09-13T05:47:01.129Z,9.03
2022-09-13T05:49:31.116Z,9.47
2022-09-13T05:51:59.586Z,8.20
2022-09-13T05:54:28.090Z,7.80
2022-09-13T05:56:57.689Z,8.33
2022-09-13T05:59:26.229Z,7.73
2022-09-13T06:01:54.836Z,8.10
2022-09-13T06:04:23.499Z,7.37
2022-09-13T06:06:53.667Z,7.70
2022-09-13T06:09:22.276Z,7.53
2022-09-13T06:11:50.719Z,7.47
2022-09-13T06:14:19.200Z,8.10
2022-09-13T06:16:47.655Z,8.17
2022-09-13T06:19:16.101Z,7.57
2022-09-13T06:21:44.614Z,7.20
2022-09-13T06:24:14.895Z,7.47
2022-09-13T06:26:43.383Z,7.53
2022-09-13T06:29:13.184Z,7.20
2022-09-13T06:31:44.915Z,7.53
2022-09-13T06:34:15.679Z,7.57
2022-09-13T06:36:44.430Z,7.30
2022-09-13T06:39:14.376Z,6.75
2022-09-13T06:41:42.856Z,6.63
2022-09-13T06:44:11.376Z,6.80
2022-09-13T06:46:40.167Z,6.55
2022-09-13T06:49:10.027Z,6.18
2022-09-13T06:51:38.605Z,6.47
2022-09-13T06:54:07.207Z,6.13
2022-09-13T06:56:39.567Z,6.25
2022-09-13T06:59:09.806Z,6.38
2022-09-13T07:01:40.294Z,6.13
2022-09-13T07:04:10.387Z,6.53
2022-09-13T07:06:40.781Z,6.38
2022-09-13T07:09:12.085Z,6.28
2022-09-13T07:11:43.364Z,6.35
2022-09-13T07:14:16.052Z,6.18
2022-09-13T07:16:46.249Z,6.78
2022-09-13T07:19:17.055Z,7.18
2022-09-13T07:21:45.744Z,6.70
2022-09-13T07:24:14.493Z,6.47
2022-09-13T07:26:45.119Z,6.50
2022-09-13T07:29:16.482Z,6.50
2022-09-13T07:31:46.386Z,6.57
2022-09-13T07:34:16.835Z,6.47
2022-09-13T07:36:47.039Z,6.38
2022-09-13T07:39:20.270Z,6.00
2022-09-13T07:41:53.979Z,6.28
2022-09-13T07:44:22.905Z,5.97
2022-09-13T07:46:51.526Z,6.80
2022-09-13T07:49:20.769Z,6.63
2022-09-13T07:51:51.556Z,6.53
2022-09-13T07:54:21.354Z,6.22
2022-09-13T07:56:51.937Z,6.30
2022-09-13T07:59:20.833Z,6.55
2022-09-13T08:01:51.207Z,6.40
2022-09-13T08:04:21.763Z,5.95
2022-09-13T08:06:50.524Z,5.88
2022-09-13T08:09:20.040Z,6.25
2022-09-13T08:11:51.815Z,6.20
2022-09-13T08:14:23.758Z,5.85
2022-09-13T08:16:52.701Z,5.80
2022-09-13T08:19:21.254Z,6.85
2022-09-13T08:21:49.557Z,6.13
2022-09-13T08:24:19.929Z,5.90
2022-09-13T08:26:49.117Z,5.68
2022-09-13T08:29:18.169Z,6.13
2022-09-13T08:31:48.069Z,6.57
2022-09-13T08:34:18.260Z,6.40
2022-09-13T08:36:46.639Z,6.35
2022-09-13T08:39:15.204Z,6.00
2022-09-13T08:42:12.963Z,6.68
2022-09-13T08:44:47.064Z,6.22
2022-09-13T08:47:40.387Z,6.10
2022-09-13T08:50:17.504Z,6.18
2022-09-13T08:53:21.346Z,6.53
2022-09-13T08:55:57.843Z,6.40
2022-09-13T08:58:44.450Z,6.15
2022-09-13T09:01:23.180Z,6.30
2022-09-13T09:03:58.725Z,5.63
2022-09-13T09:06:27.370Z,5.82
2022-09-13T09:09:00.958Z,5.40
2022-09-13T09:11:35.516Z,5.50
2022-09-13T09:14:10.180Z,5.47
2022-09-13T09:16:42.077Z,6.15
2022-09-13T09:19:21.421Z,5.57
2022-09-13T09:21:52.010Z,5.53
2022-09-13T09:24:23.718Z,5.20
2022-09-13T09:26:53.837Z,5.30
2022-09-13T09:29:25.635Z,5.10
2022-09-13T09:32:09.921Z,5.25
2022-09-13T09:34:48.971Z,4.78
2022-09-13T09:37:22.179Z,4.90
2022-09-13T09:39:51.714Z,5.10
2022-09-13T09:42:24.931Z,5.05
2022-09-13T09:44:56.581Z,4.75
2022-09-13T09:47:29.633Z,4.53
2022-09-13T09:50:11.023Z,4.68
2022-09-13T09:52:44.603Z,5.00
2022-09-13T09:55:21.159Z,5.05
2022-09-13T09:57:53.285Z,4.68
2022-09-13T10:00:23.731Z,4.78
2022-09-13T10:02:56.222Z,4.65
2022-09-13T10:05:27.799Z,5.05
2022-09-13T10:08:03.127Z,4.90
2022-09-13T10:10:38.483Z,4.90
2022-09-13T10:13:14.163Z,4.40
2022-09-13T10:15:54.583Z,5.07
2022-09-13T10:18:43.460Z,4.90
2022-09-13T10:21:24.225Z,4.43
2022-09-13T10:24:13.311Z,4.30
2022-09-13T10:26:43.287Z,4.45
2022-09-13T10:29:17.736Z,4.78
2022-09-13T10:31:50.082Z,4.40
2022-09-13T10:34:22.366Z,5.15
2022-09-13T10:36:55.902Z,4.70
2022-09-13T10:39:26.345Z,4.35
2022-09-13T10:41:58.536Z,4.50
2022-09-13T10:44:33.782Z,4.38
2022-09-13T10:47:05.788Z,4.53
2022-09-13T10:49:50.613Z,4.72
2022-09-13T10:52:31.315Z,4.75
2022-09-13T10:55:32.372Z,4.30
2022-09-13T10:58:32.279Z,4.20
2022-09-13T11:01:25.293Z,4.35
2022-09-13T11:04:21.066Z,4.22
2022-09-13T11:07:02.156Z,4.05
2022-09-13T11:09:36.761Z,3.92
2022-09-13T11:12:18.463Z,4.10
2022-09-13T11:14:57.802Z,3.92
2022-09-13T11:17:43.821Z,4.13
2022-09-13T11:20:22.493Z,4.25
2022-09-13T11:23:12.610Z,4.10
2022-09-13T11:25:53.260Z,4.00
2022-09-13T11:28:29.943Z,3.95
2022-09-13T11:31:14.011Z,3.92
2022-09-13T11:33:52.459Z,4.18
2022-09-13T11:36:43.045Z,3.63
2022-09-13T11:39:24.920Z,3.47
2022-09-13T11:42:03.366Z,3.88
2022-09-13T11:44:57.006Z,3.50
2022-09-13T11:47:42.167Z,3.50
2022-09-13T11:50:43.498Z,3.40
2022-09-13T11:53:37.040Z,3.90
2022-09-13T11:56:09.898Z,4.25
2022-09-13T11:58:45.802Z,3.90
2022-09-13T12:01:21.021Z,3.95
2022-09-13T12:03:57.568Z,4.00
2022-09-13T12:06:30.644Z,4.25
2022-09-13T12:09:03.704Z,3.97
2022-09-13T12:11:36.488Z,3.85
2022-09-13T12:14:07.947Z,4.45
2022-09-13T12:16:39.565Z,4.45
2022-09-13T12:19:16.983Z,4.25
2022-09-13T12:21:46.086Z,4.60
2022-09-13T12:24:19.356Z,4.18
2022-09-13T12:26:53.443Z,4.18
2022-09-13T12:29:29.168Z,4.30
2022-09-13T12:32:01.926Z,4.63
2022-09-13T12:34:40.105Z,4.03
2022-09-13T12:37:29.518Z,4.32
2022-09-13T12:40:23.619Z,4.60
2022-09-13T12:43:25.414Z,4.03
2022-09-13T12:46:29.491Z,4.40
2022-09-13T12:49:24.419Z,3.80
2022-09-13T12:52:16.046Z,4.07
2022-09-13T12:55:29.439Z,3.90
2022-09-13T12:58:16.582Z,3.88
2022-09-13T13:00:51.118Z,3.85
2022-09-13T13:03:21.068Z,3.90
2022-09-13T13:06:09.085Z,3.80
2022-09-13T13:08:40.015Z,3.88
2022-09-13T13:11:11.400Z,4.38
2022-09-13T13:13:42.211Z,3.90
2022-09-13T13:16:27.474Z,4.13
2022-09-13T13:18:57.525Z,4.10
2022-09-13T13:21:34.315Z,4.40
2022-09-13T13:24:45.222Z,4.10
2022-09-13T13:27:42.742Z,3.88
2022-09-13T13:30:41.546Z,3.78
2022-09-13T13:33:29.432Z,3.53
2022-09-13T13:35:57.890Z,3.55
2022-09-13T13:38:58.038Z,3.90
2022-09-13T13:41:48.292Z,3.60
2022-09-13T13:44:54.185Z,3.40
2022-09-13T13:47:59.066Z,3.33
2022-09-13T13:50:27.492Z,3.40
2022-09-13T13:53:05.671Z,3.35
2022-09-13T13:55:44.631Z,3.22
2022-09-13T13:58:43.659Z,3.15
2022-09-13T14:01:18.912Z,3.40
2022-09-13T14:04:24.014Z,3.30
2022-09-13T14:07:06.126Z,3.42
2022-09-13T14:09:43.927Z,3.15
2022-09-13T14:12:22.901Z,3.40
2022-09-13T14:15:17.436Z,3.28
2022-09-13T14:18:35.124Z,3.40
2022-09-13T14:21:06.184Z,3.28
2022-09-13T14:23:35.374Z,3.38
2022-09-13T14:26:05.594Z,3.50
2022-09-13T14:28:34.613Z,3.65
2022-09-13T14:31:04.674Z,3.47
2022-09-13T14:33:36.956Z,3.35
2022-09-13T14:36:07.765Z,3.50
2022-09-13T14:38:37.564Z,3.58
2022-09-13T14:41:15.350Z,3.63
2022-09-13T14:43:44.382Z,5.05
2022-09-13T14:46:20.935Z,3.75
2022-09-13T14:48:52.200Z,3.42
2022-09-13T14:51:26.104Z,3.20
2022-09-13T14:53:59.432Z,3.53
2022-09-13T14:56:34.820Z,3.40
2022-09-13T14:59:08.022Z,3.85
2022-09-13T15:01:37.952Z,3.90
2022-09-13T15:04:07.841Z,3.53
2022-09-13T15:06:39.314Z,3.63
2022-09-13T15:09:27.764Z,3.13
2022-09-13T15:11:59.604Z,3.70
2022-09-13T15:14:31.227Z,3.50
2022-09-13T15:17:08.213Z,3.65
2022-09-13T15:19:42.237Z,3.70
2022-09-13T15:22:17.805Z,3.70
2022-09-13T15:24:48.821Z,3.47
2022-09-13T15:27:23.744Z,3.05
2022-09-13T15:29:54.279Z,3.40
2022-09-13T15:32:33.378Z,3.72
2022-09-13T15:35:03.369Z,3.50
2022-09-13T15:37:35.370Z,3.90
2022-09-13T15:40:14.219Z,3.53
2022-09-13T15:42:46.297Z,3.53
2022-09-13T15:45:14.927Z,3.25
2022-09-13T15:47:47.474Z,3.47
2022-09-13T15:50:26.824Z,3.92
2022-09-13T15:52:56.066Z,4.00
2022-09-13T15:55:25.110Z,3.72
2022-09-13T15:57:53.682Z,3.80
2022-09-13T16:00:24.326Z,3.60
2022-09-13T16:02:54.720Z,4.10
2022-09-13T16:05:23.367Z,4.00
2022-09-13T16:07:51.880Z,3.90
2022-09-13T16:10:22.862Z,3.65
2022-09-13T16:12:51.611Z,3.97
2022-09-13T16:15:20.097Z,4.07
2022-09-13T16:17:48.910Z,3.60
2022-09-13T16:20:18.872Z,4.00
2022-09-13T16:22:47.381Z,4.43
2022-09-13T16:25:16.614Z,3.75
2022-09-13T16:27:45.871Z,4.68
2022-09-13T16:30:19.947Z,3.90
2022-09-13T16:32:48.383Z,3.60
2022-09-13T16:35:18.972Z,4.47
2022-09-13T16:37:51.494Z,4.28
2022-09-13T16:40:20.610Z,3.75
2022-09-13T16:42:49.249Z,3.65
2022-09-13T16:45:17.754Z,4.05
2022-09-13T16:47:46.170Z,4.55
2022-09-13T16:50:14.803Z,4.30
2022-09-13T16:52:44.827Z,4.30
2022-09-13T16:55:13.491Z,5.00
2022-09-13T16:57:42.024Z,4.28
2022-09-13T17:00:11.995Z,4.70
2022-09-13T17:02:40.570Z,6.50
2022-09-13T17:05:11.114Z,5.47
2022-09-13T17:07:39.689Z,5.47
2022-09-13T17:10:12.693Z,4.50
2022-09-13T17:12:41.806Z,5.03
2022-09-13T17:15:11.354Z,5.00
2022-09-13T17:17:39.885Z,5.35
2022-09-13T17:20:12.238Z,5.43
2022-09-13T17:22:41.568Z,5.32
2022-09-13T17:25:12.100Z,5.28
2022-09-13T17:27:40.551Z,5.68
2022-09-13T17:30:12.539Z,6.50
2022-09-13T17:32:41.196Z,6.00
2022-09-13T17:35:11.236Z,6.03
2022-09-13T17:37:40.025Z,5.55
2022-09-13T17:40:09.281Z,5.43
2022-09-13T17:42:39.347Z,4.85
2022-09-13T17:45:08.139Z,5.57
2022-09-13T17:47:36.634Z,5.60
2022-09-13T17:50:05.401Z,5.60
2022-09-13T17:52:35.288Z,5.38
2022-09-13T17:55:03.766Z,6.00
2022-09-13T17:57:32.437Z,6.00
2022-09-13T18:00:02.601Z,5.55
2022-09-13T18:02:32.894Z,6.28
2022-09-13T18:05:05.284Z,7.38
2022-09-13T18:07:34.852Z,6.15
2022-09-13T18:10:03.342Z,6.30
2022-09-13T18:12:31.826Z,7.40
2022-09-13T18:15:02.588Z,11.07
2022-09-13T18:17:31.047Z,7.38
2022-09-13T18:19:59.658Z,7.90
2022-09-13T18:22:28.073Z,6.28
2022-09-13T18:24:56.610Z,6.43
2022-09-13T18:27:25.012Z,6.28
2022-09-13T18:29:53.369Z,6.32
2022-09-13T18:32:23.259Z,6.03
2022-09-13T18:34:51.723Z,6.30
2022-09-13T18:37:20.195Z,6.68
2022-09-13T18:39:48.630Z,6.50
2022-09-13T18:42:17.104Z,6.80
2022-09-13T18:44:45.634Z,6.35
2022-09-13T18:47:14.229Z,6.63
2022-09-13T18:49:44.171Z,6.93
2022-09-13T18:52:12.986Z,6.35
2022-09-13T18:54:41.462Z,6.30
2022-09-13T18:57:11.535Z,6.65
2022-09-13T18:59:40.448Z,6.65
2022-09-13T19:02:10.283Z,6.15
2022-09-13T19:04:39.232Z,6.57
2022-09-13T19:07:09.768Z,7.53
2022-09-13T19:09:38.895Z,6.50
2022-09-13T19:12:08.908Z,7.10
2022-09-13T19:14:38.150Z,7.20
2022-09-13T19:17:08.046Z,7.80
2022-09-13T19:19:37.055Z,7.25
2022-09-13T19:22:06.193Z,7.75
2022-09-13T19:24:38.244Z,7.93
2022-09-13T19:27:07.493Z,7.40
2022-09-13T19:29:36.741Z,8.02
2022-09-13T19:32:06.033Z,8.10
2022-09-13T19:34:35.337Z,7.65
2022-09-13T19:37:04.666Z,7.22
2022-09-13T19:39:34.412Z,6.85
2022-09-13T19:42:05.612Z,7.57
2022-09-13T19:44:35.056Z,7.93
2022-09-13T19:47:53.094Z,7.50
2022-09-13T19:49:54.858Z,7.13
2022-09-13T19:52:23.817Z,7.18
2022-09-13T19:54:56.463Z,7.57
2022-09-13T19:57:27.255Z,7.05
2022-09-13T19:59:55.809Z,6.93
2022-09-13T20:02:24.274Z,7.43
2022-09-13T20:04:53.217Z,7.45
2022-09-13T20:07:22.279Z,6.93
2022-09-13T20:09:51.077Z,7.65
2022-09-13T20:12:26.601Z,7.43
2022-09-13T20:14:56.824Z,7.63
2022-09-13T20:17:25.644Z,7.30
2022-09-13T20:19:54.246Z,6.65
2022-09-13T20:22:22.834Z,6.88
2022-09-13T20:24:51.397Z,6.72
2022-09-13T20:27:20.081Z,7.80
2022-09-13T20:29:48.786Z,7.03
2022-09-13T20:32:18.859Z,7.65
2022-09-13T20:34:50.056Z,7.20
2022-09-13T20:37:18.929Z,7.10
2022-09-13T20:39:48.944Z,7.50
2022-09-13T20:42:17.995Z,7.47
2022-09-13T20:44:47.233Z,7.38
2022-09-13T20:47:15.872Z,7.28
2022-09-13T20:49:45.956Z,8.13
2022-09-13T20:52:14.433Z,7.72
2022-09-13T20:54:43.311Z,7.25
2022-09-13T20:57:11.988Z,7.97
2022-09-13T20:59:40.372Z,7.78
2022-09-13T21:02:08.927Z,7.55
2022-09-13T21:04:37.362Z,7.90
2022-09-13T21:07:25.129Z,7.30
2022-09-13T21:09:53.549Z,8.07
2022-09-13T21:12:22.117Z,7.63
2022-09-13T21:14:50.963Z,7.63
2022-09-13T21:17:20.241Z,7.70
2022-09-13T21:19:48.631Z,7.45
2022-09-13T21:22:18.702Z,8.05
2022-09-13T21:24:47.081Z,7.88
2022-09-13T21:27:15.624Z,8.48
2022-09-13T21:29:44.044Z,7.88
2022-09-13T21:32:12.736Z,7.88
2022-09-13T21:34:41.201Z,8.65
2022-09-13T21:37:09.739Z,8.98
2022-09-13T21:39:39.709Z,8.52
2022-09-13T21:42:08.913Z,8.52
2022-09-13T21:44:38.739Z,8.35
2022-09-13T21:47:07.533Z,8.45
2022-09-13T21:49:36.129Z,8.23
2022-09-13T21:52:04.828Z,8.63
2022-09-13T21:54:33.301Z,9.10
2022-09-13T21:57:03.342Z,8.88
2022-09-13T21:59:31.711Z,9.00
2022-09-13T22:02:01.036Z,8.80
2022-09-13T22:04:29.570Z,8.70
2022-09-13T22:06:58.084Z,8.65
2022-09-13T22:09:28.163Z,8.60
2022-09-13T22:11:57.765Z,8.27
2022-09-13T22:14:27.824Z,8.25
2022-09-13T22:16:56.963Z,9.18
2022-09-13T22:19:27.129Z,8.18
2022-09-13T22:21:59.177Z,8.40
2022-09-13T22:24:30.022Z,8.45
2022-09-13T22:26:59.376Z,8.13
2022-09-13T22:29:30.270Z,8.55
2022-09-13T22:31:58.644Z,8.45
2022-09-13T22:34:30.936Z,8.25
2022-09-13T22:37:00.233Z,8.77
2022-09-13T22:39:28.721Z,8.68
2022-09-13T22:41:57.281Z,8.48
2022-09-13T22:44:25.868Z,8.32
2022-09-13T22:46:55.748Z,8.18
2022-09-13T22:49:24.355Z,9.30
2022-09-13T22:51:52.949Z,8.80
2022-09-13T22:54:21.395Z,8.40
2022-09-13T22:56:49.825Z,8.48
2022-09-13T22:59:20.380Z,8.02
2022-09-13T23:01:49.273Z,7.55
2022-09-13T23:04:19.680Z,8.30
2022-09-13T23:06:48.698Z,8.60
2022-09-13T23:09:19.138Z,7.65
2022-09-13T23:11:48.041Z,8.25
2022-09-13T23:14:20.211Z,8.23
2022-09-13T23:16:51.503Z,8.88
2022-09-13T23:19:23.545Z,8.07
2022-09-13T23:21:54.231Z,8.32
2022-09-13T23:24:24.299Z,8.13
2022-09-13T23:26:56.560Z,8.80
2022-09-13T23:29:25.490Z,8.35
2022-09-13T23:31:54.029Z,8.45
2022-09-13T23:34:24.111Z,8.75
2022-09-13T23:36:52.727Z,8.95
2022-09-13T23:39:21.875Z,8.55
2022-09-13T23:41:51.718Z,8.52
2022-09-13T23:44:20.878Z,8.35
2022-09-13T23:46:52.019Z,8.02
2022-09-13T23:49:20.848Z,8.50
2022-09-13T23:51:51.421Z,8.00
2022-09-13T23:54:20.183Z,8.10
2022-09-13T23:56:48.945Z,8.52
2022-09-13T23:59:17.754Z,8.18
